Time;durP1;ratioP1;P1;durP2;ratioP2;P2;SDS_P1;SDS_P2;PMS_P1;PMS_P2;Temp;Humidity;BMP_temperature;BMP_pressure;BME280_temperature;BME280_humidity;BME280_pressure;Samples;Min_cycle;Max_cycle;Signal;HPM_P1;HPM_P2
2022/07/17 00:00:02;;;;;;;5.10;1.77;;;;;;;25.98;50.21;100652.53;2104847;28;20052;-74
2022/07/17 00:01:26;;;;;;;3.90;2.03;;;;;;;25.96;50.41;100660.72;2102223;28;20051;-73
2022/07/17 00:02:50;;;;;;;4.70;1.77;;;;;;;25.97;50.62;100658.88;2101615;28;20040;-73
2022/07/17 00:04:13;;;;;;;4.63;2.13;;;;;;;25.95;50.33;100664.38;2102222;28;20056;-73
2022/07/17 00:05:34;;;;;;;3.90;2.00;;;;;;;25.94;50.60;100668.03;2101884;28;20051;-73
2022/07/17 00:06:56;;;;;;;4.25;1.67;;;;;;;25.96;50.49;100662.53;2101871;28;20047;-73
2022/07/17 00:08:19;;;;;;;7.82;1.80;;;;;;;25.98;50.46;100663.34;2093678;28;20082;-73
2022/07/17 00:09:40;;;;;;;4.85;2.03;;;;;;;25.97;50.56;100658.88;2107227;28;20058;-73
2022/07/17 00:11:03;;;;;;;3.15;2.00;;;;;;;25.94;50.75;100659.91;2096208;28;20488;-74
2022/07/17 00:12:25;;;;;;;2.97;1.83;;;;;;;25.92;50.97;100660.97;2093760;28;20079;-74
2022/07/17 00:13:47;;;;;;;2.97;1.73;;;;;;;25.92;50.73;100659.13;2098955;28;20036;-74
2022/07/17 00:15:09;;;;;;;4.13;1.80;;;;;;;25.92;50.75;100659.13;2101985;28;20040;-73
2022/07/17 00:16:32;;;;;;;5.05;2.10;;;;;;;25.94;50.73;100659.03;2101799;28;20054;-73
2022/07/17 00:17:57;;;;;;;4.15;1.80;;;;;;;25.94;50.94;100657.19;2101879;28;20052;-73
2022/07/17 00:19:20;;;;;;;7.30;2.17;;;;;;;25.92;50.87;100652.84;2102182;28;20093;-73
2022/07/17 00:20:43;;;;;;;8.50;2.15;;;;;;;25.92;50.81;100661.84;2102158;28;20056;-73
2022/07/17 00:22:06;;;;;;;5.68;2.08;;;;;;;25.92;50.76;100659.13;2104641;28;20151;-73
2022/07/17 00:23:27;;;;;;;4.70;1.90;;;;;;;25.90;51.12;100647.50;2104120;28;20576;-74
2022/07/17 00:24:49;;;;;;;3.05;1.88;;;;;;;25.89;51.27;100648.44;2093615;28;20522;-74
2022/07/17 00:26:12;;;;;;;7.28;2.10;;;;;;;25.90;51.26;100652.03;2107636;28;20547;-74
2022/07/17 00:27:35;;;;;;;6.13;1.88;;;;;;;25.89;51.41;100648.44;2104761;28;20043;-73
2022/07/17 00:28:56;;;;;;;3.55;1.90;;;;;;;25.89;51.27;100650.28;2102124;28;20130;-73
2022/07/17 00:30:19;;;;;;;8.68;2.30;;;;;;;25.89;51.27;100642.16;2101401;28;20098;-74
2022/07/17 00:31:42;;;;;;;7.70;2.03;;;;;;;25.87;51.25;100647.63;2103362;28;20510;-74
2022/07/17 00:33:06;;;;;;;6.00;2.00;;;;;;;25.87;51.36;100647.63;2103018;28;20135;-74
2022/07/17 00:34:27;;;;;;;6.43;2.08;;;;;;;25.84;51.49;100646.91;2105829;28;20052;-73
2022/07/17 00:35:50;;;;;;;7.15;2.00;;;;;;;25.83;51.58;100646.03;2111809;28;20073;-74
2022/07/17 00:37:11;;;;;;;5.93;2.38;;;;;;;25.81;51.74;100639.81;2106061;28;20687;-73
2022/07/17 00:38:33;;;;;;;4.90;1.98;;;;;;;25.82;52.03;100643.41;2103236;28;20111;-74
2022/07/17 00:39:55;;;;;;;6.47;2.33;;;;;;;25.81;52.02;100645.22;2103086;28;20105;-73
2022/07/17 00:41:17;;;;;;;2.92;1.70;;;;;;;25.82;51.71;100640.69;2103332;28;20147;-75
2022/07/17 00:42:39;;;;;;;6.25;2.05;;;;;;;25.82;52.02;100638.88;2103439;28;20044;-73
2022/07/17 00:44:04;;;;;;;;;;;;;;;25.81;51.69;100639.81;2103923;28;20050;-73
2022/07/17 00:45:27;;;;;;;6.22;2.03;;;;;;;25.82;51.64;100640.69;2103879;28;19920;-73
2022/07/17 00:46:50;;;;;;;3.97;1.67;;;;;;;25.81;51.75;100631.72;2103388;28;20074;-73
2022/07/17 00:48:14;;;;;;;6.18;1.95;;;;;;;25.83;51.64;100634.34;2104537;28;20048;-73
2022/07/17 00:49:37;;;;;;;6.28;2.10;;;;;;;25.82;51.70;100641.59;2111887;28;20477;-73
2022/07/17 00:50:59;;;;;;;3.35;1.92;;;;;;;25.82;51.59;100629.88;2114155;28;20052;-75
2022/07/17 00:52:21;;;;;;;5.43;1.92;;;;;;;25.81;51.54;100629.00;2103535;28;20075;-74
2022/07/17 00:53:44;;;;;;;2.33;1.67;;;;;;;25.79;51.92;100639.94;2108983;28;20055;-72
2022/07/17 00:55:06;;;;;;;6.03;1.88;;;;;;;25.79;51.91;100634.50;2111613;28;20165;-74
2022/07/17 00:56:29;;;;;;;5.20;1.77;;;;;;;25.80;51.79;100636.25;2114476;28;20051;-74
2022/07/17 00:57:54;;;;;;;5.07;2.00;;;;;;;25.82;51.47;100638.88;2111809;28;20043;-73
2022/07/17 00:59:18;;;;;;;7.53;2.20;;;;;;;25.82;51.68;100638.00;2111679;28;20075;-74
2022/07/17 01:00:39;;;;;;;4.40;2.03;;;;;;;25.80;51.55;100638.06;2111818;28;20039;-74
2022/07/17 01:02:05;;;;;;;6.43;1.95;;;;;;;25.78;51.74;100626.47;2105934;28;20044;-74
2022/07/17 01:03:29;;;;;;;4.88;1.90;;;;;;;25.77;51.47;100640.94;2111810;28;20048;-73
2022/07/17 01:04:51;;;;;;;4.40;1.95;;;;;;;25.77;51.51;100630.13;2111783;28;20043;-74
2022/07/17 01:06:13;;;;;;;8.57;2.08;;;;;;;25.75;51.60;100629.31;2111180;28;20133;-73
2022/07/17 01:07:35;;;;;;;5.18;1.60;;;;;;;25.75;51.56;100629.31;2105630;28;20067;-73
2022/07/17 01:08:57;;;;;;;6.40;1.95;;;;;;;25.74;51.40;100628.44;2109023;28;20474;-73
2022/07/17 01:10:19;;;;;;;4.38;1.63;;;;;;;25.73;51.44;100617.72;2111516;28;20209;-73
2022/07/17 01:11:41;;;;;;;4.28;2.10;;;;;;;25.71;51.63;100625.91;2111300;28;20058;-73
2022/07/17 01:13:03;;;;;;;3.58;1.70;;;;;;;25.70;51.60;100618.72;2111159;28;20100;-73
2022/07/17 01:14:27;;;;;;;6.47;2.22;;;;;;;25.71;51.53;100619.59;2113718;28;20142;-73
2022/07/17 01:15:53;;;;;;;3.00;1.63;;;;;;;25.71;51.16;100620.47;2111568;28;20064;-73
2022/07/17 01:17:15;;;;;;;2.30;1.58;;;;;;;25.72;51.01;100614.13;2111896;28;20423;-73
2022/07/17 01:18:39;;;;;;;2.95;1.58;;;;;;;25.73;50.96;100615.84;2111462;28;20048;-73
2022/07/17 01:20:02;;;;;;;5.22;1.83;;;;;;;25.74;50.84;100611.31;2111364;28;20047;-73
2022/07/17 01:21:26;;;;;;;5.32;1.90;;;;;;;25.72;50.91;100618.66;2111445;28;20092;-73
2022/07/17 01:22:49;;;;;;;3.10;1.60;;;;;;;25.71;50.91;100616.91;2111660;28;20516;-73
2022/07/17 01:24:12;;;;;;;4.00;1.85;;;;;;;25.69;50.91;100619.66;2111552;28;20054;-74
2022/07/17 01:25:34;;;;;;;6.43;1.80;;;;;;;25.69;51.20;100621.50;2111461;28;20426;-73
2022/07/17 01:26:57;;;;;;;5.95;2.65;;;;;;;25.69;51.03;100618.78;2113688;28;20413;-74
2022/07/17 01:28:18;;;;;;;3.60;1.60;;;;;;;25.68;50.98;100614.34;2111481;28;20446;-73
2022/07/17 01:29:41;;;;;;;6.50;1.90;;;;;;;25.67;50.99;100617.97;2102883;28;20052;-74
2022/07/17 01:31:03;;;;;;;8.25;2.00;;;;;;;25.65;51.30;100614.50;2108581;28;20134;-74
2022/07/17 01:32:32;;;;;;;4.32;1.67;;;;;;;25.64;51.18;100615.44;2111289;28;20517;-73
2022/07/17 01:33:55;;;;;;;6.50;1.80;;;;;;;25.62;51.17;100614.63;2111859;28;20039;-74
2022/07/17 01:35:16;;;;;;;5.72;2.10;;;;;;;25.60;51.34;100616.56;2111427;28;20047;-74
2022/07/17 01:36:41;;;;;;;4.40;1.85;;;;;;;25.56;51.05;100613.06;2111436;28;20078;-73
2022/07/17 01:38:03;;;;;;;4.60;1.92;;;;;;;25.56;51.27;100615.78;2103077;28;20056;-73
2022/07/17 01:41:02;;;;;;;5.85;1.70;;;;;;;25.56;51.03;100606.78;2112955;28;20047;-73
2022/07/17 01:42:25;;;;;;;4.65;1.95;;;;;;;25.55;50.83;100619.44;2111426;28;20047;-74
2022/07/17 01:43:47;;;;;;;4.78;2.03;;;;;;;25.54;50.86;100611.38;2111089;28;20043;-73
2022/07/17 01:45:09;;;;;;;4.18;1.60;;;;;;;25.57;50.70;100605.84;2111264;28;20553;-73
2022/07/17 01:46:32;;;;;;;2.95;1.90;;;;;;;25.60;50.92;100617.41;2111474;28;20077;-73
2022/07/17 01:47:53;;;;;;;5.50;1.80;;;;;;;25.60;50.79;100606.59;2110818;28;20493;-74
2022/07/17 01:49:19;;;;;;;9.15;2.28;;;;;;;25.62;50.41;100611.94;2111235;28;20055;-73
2022/07/17 01:50:41;;;;;;;5.15;1.85;;;;;;;25.64;50.72;100607.34;2105688;28;20085;-73
2022/07/17 01:52:04;;;;;;;3.55;1.98;;;;;;;25.64;50.55;100605.50;2102789;28;20043;-73
2022/07/17 01:53:27;;;;;;;5.82;1.90;;;;;;;25.63;50.27;100606.47;2094425;28;20072;-73
2022/07/17 01:54:49;;;;;;;8.02;1.80;;;;;;;25.62;50.31;100599.28;2108356;28;20057;-73
2022/07/17 01:56:12;;;;;;;6.30;1.73;;;;;;;25.63;50.46;100610.97;2105444;28;20036;-73
2022/07/17 01:57:34;;;;;;;5.15;1.77;;;;;;;25.63;50.18;100601.03;2102774;28;20055;-73
2022/07/17 01:58:57;;;;;;;7.20;2.75;;;;;;;25.65;50.34;100598.28;2102760;28;20044;-73
2022/07/17 02:00:22;;;;;;;4.25;1.88;;;;;;;25.65;50.24;100603.69;2102889;28;20052;-72
2022/07/17 02:01:44;;;;;;;5.28;1.70;;;;;;;25.67;50.26;100597.22;2102741;28;20086;-74
2022/07/17 02:03:06;;;;;;;5.82;2.10;;;;;;;25.66;50.25;100603.63;2102700;28;20040;-73
2022/07/17 02:04:27;;;;;;;4.63;1.73;;;;;;;25.64;50.29;100602.81;2102732;28;20150;-73
2022/07/17 02:05:50;;;;;;;5.13;1.80;;;;;;;25.63;50.27;100605.56;2102685;28;20044;-72
2022/07/17 02:07:13;;;;;;;6.05;2.15;;;;;;;25.62;50.19;100607.41;2102844;28;20071;-73
2022/07/17 02:08:35;;;;;;;3.65;1.55;;;;;;;25.62;50.15;100609.22;2102280;28;20067;-74
2022/07/17 02:09:57;;;;;;;8.00;2.15;;;;;;;25.60;50.23;100603.03;2102848;28;20431;-73
2022/07/17 02:11:20;;;;;;;2.67;1.60;;;;;;;25.61;50.38;100619.16;2102741;28;20044;-73
2022/07/17 02:12:42;;;;;;;4.28;2.25;;;;;;;25.62;50.26;100612.81;2094125;28;20102;-73
2022/07/17 02:14:05;;;;;;;3.42;1.60;;;;;;;25.65;50.43;100612.69;2094161;28;20046;-74
2022/07/17 02:15:27;;;;;;;6.35;2.00;;;;;;;25.64;50.48;100616.31;2100171;28;20052;-73
2022/07/17 02:16:49;;;;;;;6.47;1.67;;;;;;;25.64;50.25;100619.03;2094262;28;20048;-73
2022/07/17 02:18:11;;;;;;;4.85;1.83;;;;;;;25.61;50.16;100618.28;2099652;28;20044;-74
2022/07/17 02:19:34;;;;;;;5.35;1.58;;;;;;;25.60;50.35;100624.66;2102798;28;20382;-74
2022/07/17 02:20:56;;;;;;;2.78;1.73;;;;;;;25.57;50.58;100622.06;2093997;28;20064;-74
2022/07/17 02:22:19;;;;;;;4.82;1.73;;;;;;;25.55;50.46;100626.66;2100002;28;20149;-73
2022/07/17 02:23:41;;;;;;;2.58;1.85;;;;;;;25.53;50.75;100620.47;2094044;28;20163;-73
2022/07/17 02:25:05;;;;;;;7.60;2.08;;;;;;;25.49;50.80;100618.84;2099829;28;20052;-74
2022/07/17 02:26:28;;;;;;;6.95;1.90;;;;;;;25.44;50.80;100626.31;2101333;28;20207;-73
2022/07/17 02:27:51;;;;;;;5.40;1.90;;;;;;;25.40;51.23;100626.44;2111035;28;20076;-73
2022/07/17 02:29:12;;;;;;;4.50;1.60;;;;;;;25.37;51.46;100626.59;2110782;28;20052;-73
2022/07/17 02:30:35;;;;;;;3.33;1.63;;;;;;;25.37;51.50;100628.44;2110905;28;20058;-73
2022/07/17 02:31:57;;;;;;;2.88;1.70;;;;;;;25.39;51.55;100616.59;2110981;28;20043;-73
2022/07/17 02:33:19;;;;;;;9.10;3.75;;;;;;;25.39;51.46;100618.44;2110556;28;20516;-73
2022/07/17 02:34:41;;;;;;;5.03;2.03;;;;;;;25.37;51.33;100618.50;2110786;28;20046;-73
2022/07/17 02:36:03;;;;;;;2.70;1.70;;;;;;;25.37;51.46;100623.03;2113478;28;20044;-73
2022/07/17 02:37:27;;;;;;;3.28;1.73;;;;;;;25.36;51.73;100627.56;2113307;28;20058;-73
2022/07/17 02:38:50;;;;;;;4.57;1.90;;;;;;;25.35;51.79;100622.22;2113641;28;20054;-73
2022/07/17 02:40:13;;;;;;;5.03;1.77;;;;;;;25.34;51.75;100629.44;2096658;28;20526;-73
2022/07/17 02:41:36;;;;;;;4.25;1.65;;;;;;;25.32;51.77;100623.25;2105931;28;20107;-73
2022/07/17 02:43:00;;;;;;;8.00;1.90;;;;;;;25.34;51.85;100624.03;2110718;28;20164;-73
2022/07/17 02:44:22;;;;;;;4.47;1.77;;;;;;;25.37;51.58;100629.31;2104557;28;20058;-73
2022/07/17 02:45:45;;;;;;;5.32;1.70;;;;;;;25.38;51.73;100630.19;2110770;28;20059;-73
2022/07/17 02:47:06;;;;;;;5.40;2.22;;;;;;;25.36;51.65;100627.56;2111070;28;20044;-73
2022/07/17 02:48:29;;;;;;;4.35;1.70;;;;;;;25.33;51.76;100627.72;2110452;28;20051;-73
2022/07/17 02:49:51;;;;;;;5.68;1.92;;;;;;;25.33;51.76;100632.25;2110908;28;20036;-73
2022/07/17 02:51:13;;;;;;;8.05;1.85;;;;;;;25.32;51.58;100625.06;2110502;28;20039;-73
2022/07/17 02:52:38;;;;;;;4.60;1.83;;;;;;;25.30;52.01;100632.38;2110623;28;20055;-73
2022/07/17 02:53:59;;;;;;;4.38;2.08;;;;;;;25.28;51.99;100635.13;2110937;28;20042;-73
2022/07/17 02:55:23;;;;;;;5.43;1.92;;;;;;;25.29;52.00;100634.19;2109919;28;20333;-74
2022/07/17 02:56:46;;;;;;;4.05;2.10;;;;;;;25.28;52.10;100640.53;2110832;28;20070;-73
2022/07/17 02:58:08;;;;;;;4.75;1.85;;;;;;;25.28;51.93;100635.13;2110275;28;20043;-73
2022/07/17 02:59:31;;;;;;;8.73;2.10;;;;;;;25.26;52.14;100633.47;2110886;28;20044;-73
2022/07/17 03:00:52;;;;;;;4.78;1.90;;;;;;;25.24;52.11;100636.25;2104955;28;20060;-73
2022/07/17 03:02:15;;;;;;;5.55;1.80;;;;;;;25.23;52.23;100633.59;2110646;28;20134;-73
2022/07/17 03:03:38;;;;;;;5.88;2.08;;;;;;;25.20;52.25;100634.66;2110874;28;20067;-73
2022/07/17 03:04:59;;;;;;;4.85;1.83;;;;;;;25.19;52.17;100640.13;2101939;28;20505;-73
2022/07/17 03:06:22;;;;;;;5.32;1.77;;;;;;;25.17;52.25;100634.78;2110595;28;20058;-73
2022/07/17 03:07:46;;;;;;;8.88;2.00;;;;;;;25.18;52.58;100635.66;2110755;28;20046;-74
2022/07/17 03:09:08;;;;;;;6.00;2.00;;;;;;;25.16;52.66;100641.13;2102377;28;20055;-74
2022/07/17 03:10:31;;;;;;;6.88;2.22;;;;;;;25.16;52.78;100637.53;2110718;28;20409;-74
2022/07/17 03:11:52;;;;;;;5.53;1.80;;;;;;;25.15;52.95;100636.66;2113020;28;20620;-74
2022/07/17 03:13:15;;;;;;;8.25;2.47;;;;;;;25.15;52.85;100638.47;2110459;28;20055;-74
2022/07/17 03:14:36;;;;;;;8.75;1.90;;;;;;;25.18;53.00;100641.06;2113232;28;20048;-74
2022/07/17 03:15:59;;;;;;;7.47;2.17;;;;;;;25.20;52.99;100645.47;2110429;28;20418;-74
2022/07/17 03:17:21;;;;;;;9.55;1.88;;;;;;;25.19;53.25;100637.41;2110530;28;20470;-73
2022/07/17 03:18:44;;;;;;;4.97;1.90;;;;;;;25.19;53.32;100638.28;2110213;28;20130;-74
2022/07/17 03:20:09;;;;;;;7.38;2.40;;;;;;;25.19;53.62;100637.41;2110666;28;20043;-74
2022/07/17 03:21:31;;;;;;;6.00;1.80;;;;;;;25.18;53.34;100641.94;2110669;28;20491;-74
2022/07/17 03:22:54;;;;;;;5.05;2.17;;;;;;;25.20;53.76;100645.47;2113109;28;20054;-74
2022/07/17 03:24:16;;;;;;;7.32;1.92;;;;;;;25.20;54.17;100640.06;2110565;28;20066;-74
2022/07/17 03:25:39;;;;;;;5.72;1.95;;;;;;;25.21;54.17;100641.78;2110071;28;20043;-74
2022/07/17 03:27:00;;;;;;;5.53;2.47;;;;;;;25.21;54.09;100644.47;2110517;28;20078;-75
2022/07/17 03:28:23;;;;;;;3.97;1.90;;;;;;;25.20;54.13;100636.47;2113127;28;20055;-74
2022/07/17 03:29:45;;;;;;;5.32;2.08;;;;;;;25.21;54.55;100644.47;2110436;28;20101;-74
2022/07/17 03:31:07;;;;;;;3.47;1.90;;;;;;;25.23;54.36;100644.41;2110583;28;20138;-74
2022/07/17 03:32:29;;;;;;;6.13;2.50;;;;;;;25.25;54.66;100638.00;2101989;28;20143;-74
2022/07/17 03:33:51;;;;;;;7.63;2.60;;;;;;;25.30;54.71;100643.19;2107562;28;20086;-75
2022/07/17 03:35:14;;;;;;;6.95;2.17;;;;;;;25.34;54.85;100642.97;2110441;28;20082;-75
2022/07/17 03:36:36;;;;;;;4.00;1.90;;;;;;;25.40;54.83;100639.97;2110367;28;20444;-74
2022/07/17 03:38:00;;;;;;;6.80;2.17;;;;;;;25.48;54.59;100641.44;2101899;28;20036;-74
2022/07/17 03:39:22;;;;;;;3.78;2.03;;;;;;;25.55;54.56;100651.00;2104768;28;20147;-74
2022/07/17 03:40:44;;;;;;;8.13;2.28;;;;;;;25.61;54.88;100648.91;2107496;28;20167;-74
2022/07/17 03:42:06;;;;;;;8.73;1.92;;;;;;;25.68;54.51;100646.78;2102136;28;20036;-74
2022/07/17 03:43:28;;;;;;;8.20;2.20;;;;;;;25.76;54.69;100653.59;2110480;28;20047;-75
2022/07/17 03:44:50;;;;;;;5.00;2.00;;;;;;;25.85;54.45;100654.09;2102019;28;20101;-74
2022/07/17 03:46:12;;;;;;;5.70;2.30;;;;;;;25.92;54.62;100655.53;2110383;28;20039;-74
2022/07/17 03:47:34;;;;;;;3.60;2.20;;;;;;;25.99;54.76;100649.72;2110300;28;20146;-75
2022/07/17 03:48:56;;;;;;;3.95;1.77;;;;;;;26.08;54.79;100651.97;2110132;28;20051;-74
2022/07/17 03:50:18;;;;;;;8.50;2.15;;;;;;;26.17;54.51;100656.06;2110575;28;20043;-74
2022/07/17 03:51:40;;;;;;;6.15;2.80;;;;;;;26.25;54.46;100647.59;2104900;28;20078;-74
2022/07/17 03:53:04;;;;;;;7.43;2.10;;;;;;;26.34;54.58;100647.97;2107436;28;20146;-74
2022/07/17 03:54:27;;;;;;;2.88;1.60;;;;;;;26.44;54.57;100653.81;2110258;28;20143;-74
2022/07/17 03:55:48;;;;;;;7.80;1.90;;;;;;;26.53;54.60;100654.19;2093767;28;20056;-74
2022/07/17 03:57:10;;;;;;;4.40;1.90;;;;;;;26.64;54.56;100658.19;2105037;28;20053;-74
2022/07/17 03:58:32;;;;;;;9.93;2.10;;;;;;;26.72;54.33;100659.53;2110432;28;20401;-74
2022/07/17 03:59:55;;;;;;;6.90;1.90;;;;;;;26.82;54.26;100655.38;2110519;28;20406;-74
2022/07/17 04:01:18;;;;;;;6.35;2.00;;;;;;;26.93;54.08;100657.53;2112691;28;20166;-74
2022/07/17 04:02:40;;;;;;;4.93;2.10;;;;;;;27.04;54.16;100659.69;2110243;28;20044;-74
2022/07/17 04:04:02;;;;;;;4.75;2.10;;;;;;;27.14;53.95;100660.94;2110465;28;20400;-74
2022/07/17 04:05:24;;;;;;;4.82;1.90;;;;;;;27.23;53.95;100658.59;2104520;28;20040;-74
2022/07/17 04:06:45;;;;;;;3.13;1.83;;;;;;;27.35;53.80;100665.19;2117724;27;20051;-74
2022/07/17 04:08:09;;;;;;;4.93;1.95;;;;;;;27.48;53.57;100660.81;2114346;28;20055;-74
2022/07/17 04:09:31;;;;;;;5.50;1.70;;;;;;;27.58;53.52;100659.38;2112043;28;20162;-74
2022/07/17 04:10:53;;;;;;;4.22;2.10;;;;;;;27.67;53.25;100658.84;2112077;28;20488;-74
2022/07/17 04:12:16;;;;;;;5.40;1.60;;;;;;;27.76;53.00;100660.19;2111844;28;20157;-74
2022/07/17 04:13:39;;;;;;;8.00;1.92;;;;;;;27.87;52.70;100663.16;2111953;28;20068;-74
2022/07/17 04:15:02;;;;;;;5.20;1.83;;;;;;;27.99;52.54;100661.56;2103424;28;20044;-74
2022/07/17 04:16:24;;;;;;;5.55;1.80;;;;;;;28.12;52.25;100665.28;2109518;28;20592;-74
2022/07/17 04:17:46;;;;;;;5.70;1.77;;;;;;;28.25;52.04;100665.47;2111835;28;20046;-74
2022/07/17 04:19:09;;;;;;;2.97;1.63;;;;;;;28.36;51.76;100663.88;2112188;28;20131;-74
2022/07/17 04:20:30;;;;;;;5.43;1.80;;;;;;;28.48;51.55;100665.88;2103431;28;20060;-74
2022/07/17 04:21:52;;;;;;;4.97;1.70;;;;;;;28.60;51.13;100663.38;2108646;28;20516;-74
2022/07/17 04:23:15;;;;;;;7.18;1.95;;;;;;;28.70;50.87;100660.00;2115023;27;20092;-74
2022/07/17 04:24:38;;;;;;;4.90;1.75;;;;;;;28.78;50.50;100667.72;2120332;27;20080;-74
2022/07/17 04:26:01;;;;;;;4.20;1.70;;;;;;;28.88;50.21;100660.75;2111948;28;20054;-74
2022/07/17 04:27:23;;;;;;;6.78;2.08;;;;;;;29.02;50.08;100668.03;2117692;27;20370;-74
2022/07/17 04:28:46;;;;;;;6.78;1.80;;;;;;;29.15;49.75;100669.88;2120062;27;20051;-73
2022/07/17 04:30:08;;;;;;;3.13;1.55;;;;;;;29.30;49.18;100671.66;2120481;27;20031;-74
2022/07/17 04:31:31;;;;;;;5.03;1.88;;;;;;;29.44;49.17;100664.50;2119592;27;20459;-74
2022/07/17 04:32:52;;;;;;;4.95;1.40;;;;;;;29.59;48.68;100671.66;2120127;27;20083;-74
2022/07/17 04:34:15;;;;;;;4.07;1.80;;;;;;;29.77;48.37;100665.03;2123133;27;20505;-74
2022/07/17 04:35:37;;;;;;;5.32;1.80;;;;;;;29.94;48.17;100663.91;2120106;27;20031;-75
2022/07/17 04:37:01;;;;;;;5.80;2.10;;;;;;;30.11;47.80;100660.97;2120120;27;20066;-75
2022/07/17 04:38:25;;;;;;;7.10;2.80;;;;;;;30.28;47.21;100662.53;2111859;28;20464;-74
2022/07/17 04:39:47;;;;;;;7.82;1.95;;;;;;;30.46;46.94;100669.44;2118091;27;20066;-74
2022/07/17 04:41:09;;;;;;;6.70;1.60;;;;;;;30.61;46.18;100663.00;2116799;27;20039;-74
2022/07/17 04:42:31;;;;;;;6.07;1.90;;;;;;;30.76;45.75;100661.06;2117269;27;20043;-75
2022/07/17 04:43:53;;;;;;;4.47;1.80;;;;;;;30.87;44.76;100664.75;2119688;27;20039;-74
2022/07/17 04:45:16;;;;;;;5.65;1.92;;;;;;;30.96;44.63;100657.81;2112984;27;20052;-75
2022/07/17 04:46:38;;;;;;;3.80;1.48;;;;;;;31.02;43.89;100667.41;2113598;27;20046;-75
2022/07/17 04:48:00;;;;;;;6.43;1.90;;;;;;;31.11;43.73;100667.66;2115828;27;20509;-74
2022/07/17 04:49:22;;;;;;;7.32;1.63;;;;;;;31.25;43.59;100669.38;2103246;28;20147;-74
2022/07/17 04:50:45;;;;;;;8.43;1.90;;;;;;;31.45;43.62;100674.25;2120163;27;20139;-74
2022/07/17 04:52:07;;;;;;;10.70;1.73;;;;;;;31.65;43.14;100676.44;2120274;27;20111;-74
2022/07/17 04:53:31;;;;;;;10.85;1.90;;;;;;;31.88;42.76;100682.94;2120093;27;20051;-74
2022/07/17 04:54:53;;;;;;;5.50;1.52;;;;;;;32.07;42.24;100679.72;2111962;28;20133;-75
2022/07/17 04:56:15;;;;;;;7.80;1.90;;;;;;;32.31;41.95;100691.53;2111697;28;20071;-74
2022/07/17 04:57:37;;;;;;;4.70;1.50;;;;;;;32.51;41.52;100683.66;2111235;28;20522;-74
2022/07/17 04:58:59;;;;;;;4.38;1.77;;;;;;;32.68;41.14;100683.28;2111598;28;20048;-74
2022/07/17 05:00:21;;;;;;;6.35;2.10;;;;;;;32.87;40.67;100689.06;2114028;27;20069;-74
2022/07/17 05:01:44;;;;;;;5.45;1.65;;;;;;;33.07;39.88;100684.75;2116597;27;20443;-75
2022/07/17 05:03:06;;;;;;;7.60;1.75;;;;;;;33.23;39.54;100693.50;2115398;27;20055;-75
2022/07/17 05:04:29;;;;;;;7.00;1.90;;;;;;;33.39;39.33;100693.16;2116397;27;20079;-74
2022/07/17 05:05:51;;;;;;;4.07;1.30;;;;;;;33.52;38.61;100697.50;2116861;27;20066;-76
2022/07/17 05:07:14;;;;;;;5.25;1.90;;;;;;;33.65;38.33;100700.13;2120025;27;20055;-75
2022/07/17 05:08:39;;;;;;;9.10;1.77;;;;;;;33.79;38.05;100699.91;2111520;28;20047;-75
2022/07/17 05:10:00;;;;;;;9.32;1.70;;;;;;;33.88;37.70;100699.13;2126372;27;20035;-75
2022/07/17 05:11:23;;;;;;;6.90;1.80;;;;;;;34.03;37.61;100699.72;2122677;27;20109;-75
2022/07/17 05:12:46;;;;;;;4.30;1.50;;;;;;;34.23;37.32;100695.34;2111279;28;20099;-74
2022/07/17 05:14:08;;;;;;;5.95;1.73;;;;;;;34.38;37.00;100697.66;2117294;27;20071;-75
2022/07/17 05:15:31;;;;;;;9.13;2.00;;;;;;;34.57;36.76;100696.09;2119991;27;20085;-75
2022/07/17 05:16:54;;;;;;;5.45;1.77;;;;;;;34.70;36.50;100696.78;2120054;27;20463;-75
2022/07/17 05:18:17;;;;;;;6.82;1.67;;;;;;;34.76;36.24;100693.53;2112351;28;20067;-75
2022/07/17 05:19:40;;;;;;;3.10;1.40;;;;;;;34.76;36.00;100699.88;2111768;28;20077;-74
2022/07/17 05:21:01;;;;;;;3.08;1.52;;;;;;;34.91;35.93;100705.94;2108961;28;20831;-75
2022/07/17 05:22:23;;;;;;;6.00;1.40;;;;;;;35.01;35.59;100695.88;2110285;28;20075;-74
2022/07/17 05:23:48;;;;;;;3.90;1.20;;;;;;;35.05;35.52;100701.97;2110879;28;20556;-74
2022/07/17 05:25:11;;;;;;;6.55;1.50;;;;;;;35.11;35.28;100698.69;2102461;28;20600;-75
2022/07/17 05:26:35;;;;;;;8.35;2.17;;;;;;;35.17;35.30;100703.63;2100883;28;20048;-75
2022/07/17 05:27:57;;;;;;;6.32;1.55;;;;;;;35.35;35.17;100707.53;2101836;28;20075;-74
2022/07/17 05:29:20;;;;;;;3.33;1.35;;;;;;;35.49;34.99;100706.28;2100966;28;20044;-75
2022/07/17 05:30:42;;;;;;;6.88;1.83;;;;;;;35.64;34.74;100707.66;2102101;28;20101;-75
2022/07/17 05:32:04;;;;;;;9.38;1.70;;;;;;;35.80;34.36;100709.91;2101563;28;20085;-75
2022/07/17 05:33:27;;;;;;;7.00;1.60;;;;;;;35.85;33.97;100713.09;2102128;28;20139;-75
2022/07/17 05:34:49;;;;;;;7.68;1.80;;;;;;;36.03;34.02;100714.19;2094133;28;20083;-75
2022/07/17 05:36:12;;;;;;;9.10;1.60;;;;;;;36.26;33.26;100718.47;2099578;28;20055;-75
2022/07/17 05:37:34;;;;;;;7.43;1.60;;;;;;;36.44;32.95;100712.25;2102444;28;20052;-74
2022/07/17 05:38:59;;;;;;;3.58;1.38;;;;;;;36.58;32.72;100715.44;2094088;28;20048;-75
2022/07/17 05:40:22;;;;;;;7.45;1.55;;;;;;;36.72;32.39;100712.28;2100317;28;20097;-75
2022/07/17 05:41:44;;;;;;;4.97;1.30;;;;;;;36.82;32.40;100720.56;2113138;28;20109;-73
2022/07/17 05:43:05;;;;;;;3.13;1.50;;;;;;;36.66;34.21;100709.25;2105079;28;20139;-74
2022/07/17 05:44:28;;;;;;;4.35;1.50;;;;;;;36.07;35.44;100714.78;2102320;28;20094;-74
2022/07/17 05:45:53;;;;;;;5.07;1.60;;;;;;;35.65;36.74;100709.38;2102208;28;20052;-74
2022/07/17 05:47:17;;;;;;;3.83;1.52;;;;;;;35.42;36.70;100708.72;2094580;28;20146;-74
2022/07/17 05:48:38;;;;;;;3.72;1.50;;;;;;;35.36;36.09;100705.66;2106920;28;20085;-76
2022/07/17 05:50:02;;;;;;;6.45;1.50;;;;;;;35.13;35.76;100702.16;2110606;28;20039;-76
2022/07/17 05:51:24;;;;;;;8.00;1.60;;;;;;;35.07;35.21;100713.66;2113321;28;20586;-76
2022/07/17 05:52:47;;;;;;;3.75;1.20;;;;;;;35.11;34.73;100712.41;2110623;28;20139;-75
2022/07/17 05:54:11;;;;;;;3.50;1.30;;;;;;;34.98;34.49;100709.00;2113450;28;20046;-75
2022/07/17 05:55:33;;;;;;;5.15;1.30;;;;;;;34.90;34.69;100717.91;2110819;28;20051;-75
2022/07/17 05:56:56;;;;;;;4.35;1.40;;;;;;;34.96;34.67;100714.63;2113243;28;20047;-75
2022/07/17 05:58:19;;;;;;;7.15;1.95;;;;;;;35.14;34.39;100717.63;2110281;28;20078;-75
2022/07/17 05:59:42;;;;;;;6.53;1.50;;;;;;;35.28;34.06;100714.56;2110707;28;20054;-75
2022/07/17 06:01:04;;;;;;;8.25;1.80;;;;;;;35.29;33.90;100708.06;2113424;28;20080;-75
2022/07/17 06:02:26;;;;;;;8.05;1.50;;;;;;;35.41;33.29;100712.47;2112950;28;20505;-75
2022/07/17 06:03:49;;;;;;;5.70;1.30;;;;;;;35.58;33.04;100714.56;2110696;28;20064;-75
2022/07/17 06:05:11;;;;;;;7.93;2.10;;;;;;;35.61;32.73;100709.81;2104869;28;20047;-75
2022/07/17 06:06:33;;;;;;;3.33;1.50;;;;;;;35.57;32.82;100709.22;2107528;28;20146;-75
2022/07/17 06:07:57;;;;;;;7.05;1.27;;;;;;;35.62;32.56;100715.19;2104599;28;20478;-74
2022/07/17 06:09:21;;;;;;;6.28;1.83;;;;;;;35.65;32.57;100711.25;2107690;28;20043;-75
2022/07/17 06:10:44;;;;;;;5.10;1.55;;;;;;;35.77;32.72;100716.56;2113276;28;20082;-75
2022/07/17 06:12:06;;;;;;;6.15;1.88;;;;;;;35.93;32.59;100714.16;2110129;28;20073;-75
2022/07/17 06:13:29;;;;;;;5.20;1.48;;;;;;;36.09;32.57;100713.63;2110462;28;20128;-74
2022/07/17 06:14:51;;;;;;;3.35;1.30;;;;;;;36.21;32.99;100717.16;2110270;28;20483;-75
2022/07/17 06:16:15;;;;;;;4.03;1.50;;;;;;;36.31;33.08;100712.53;2104890;28;20127;-75
2022/07/17 06:17:37;;;;;;;4.78;1.58;;;;;;;36.32;33.48;100708.75;2101826;28;20124;-75
2022/07/17 06:19:00;;;;;;;4.55;1.50;;;;;;;36.37;33.69;100705.56;2102529;28;20044;-74
2022/07/17 06:20:22;;;;;;;5.47;1.70;;;;;;;36.46;33.71;100707.47;2108220;28;20072;-74
2022/07/17 06:21:44;;;;;;;4.72;1.73;;;;;;;36.37;33.90;100716.56;2110401;28;20424;-75
2022/07/17 06:23:06;;;;;;;6.20;1.50;;;;;;;36.39;34.32;100706.31;2110669;28;20105;-75
2022/07/17 06:24:29;;;;;;;7.20;2.05;;;;;;;36.57;34.28;100712.81;2110978;28;20058;-74